Time;durP1;ratioP1;P1;durP2;ratioP2;P2;SDS_P1;SDS_P2;PMS_P1;PMS_P2;Temp;Humidity;BMP_temperature;BMP_pressure;BME280_temperature;BME280_humidity;BME280_pressure;Samples;Min_cycle;Max_cycle;Signal;HPM_P1;HPM_P2
2023/08/12 00:00:32;;;;;;;4.57;3.75;;;;;;;;;;5061933;28;20209;-91
2023/08/12 00:03:01;;;;;;;5.97;3.80;;;;;;;;;;5061149;28;20240;-92
2023/08/12 00:05:28;;;;;;;3.70;3.40;;;;;;;;;;5061230;28;20272;-92
2023/08/12 00:07:55;;;;;;;5.93;3.70;;;;;;;;;;5060298;28;20240;-91
2023/08/12 00:10:22;;;;;;;4.80;3.58;;;;;;;;;;5060719;28;20213;-92
2023/08/12 00:12:49;;;;;;;4.90;3.50;;;;;;;;;;5060180;28;20226;-91
2023/08/12 00:15:17;;;;;;;4.72;3.90;;;;;;;;;;5060642;28;20696;-92
2023/08/12 00:17:44;;;;;;;5.88;3.90;;;;;;;;;;5060219;28;20233;-92
2023/08/12 00:20:13;;;;;;;7.43;4.78;;;;;;;;;;5061096;28;20673;-91
2023/08/12 00:22:40;;;;;;;7.97;3.95;;;;;;;;;;5060049;28;20230;-90
2023/08/12 00:25:08;;;;;;;3.80;3.50;;;;;;;;;;5061049;28;20744;-92
2023/08/12 00:27:35;;;;;;;5.47;4.40;;;;;;;;;;5060771;28;20329;-91
2023/08/12 00:30:02;;;;;;;4.50;4.10;;;;;;;;;;5060887;28;20213;-92
2023/08/12 00:32:29;;;;;;;4.00;3.67;;;;;;;;;;5059505;28;20312;-91
2023/08/12 00:34:56;;;;;;;4.43;3.90;;;;;;;;;;5060525;28;20229;-92
2023/08/12 00:37:25;;;;;;;4.30;3.90;;;;;;;;;;5059597;28;20248;-92
2023/08/12 00:39:52;;;;;;;4.35;3.95;;;;;;;;;;5059737;28;20196;-92
2023/08/12 00:42:19;;;;;;;4.65;4.00;;;;;;;;;;5059761;28;20225;-92
2023/08/12 00:44:46;;;;;;;4.50;3.97;;;;;;;;;;5060438;28;20194;-90
2023/08/12 00:47:14;;;;;;;3.83;3.53;;;;;;;;;;5060089;28;20240;-92
2023/08/12 00:49:43;;;;;;;4.97;3.83;;;;;;;;;;5059429;28;20202;-90
2023/08/12 00:52:10;;;;;;;4.50;4.10;;;;;;;;;;5058739;28;20226;-90
2023/08/12 00:54:39;;;;;;;6.72;4.47;;;;;;;;;;5052286;28;20213;-90
2023/08/12 00:57:07;;;;;;;4.20;3.80;;;;;;;;;;5053814;28;20237;-92
2023/08/12 00:59:35;;;;;;;4.70;3.63;;;;;;;;;;5058745;28;20198;-91
2023/08/12 01:02:02;;;;;;;3.70;3.40;;;;;;;;;;5058477;28;20234;-91
2023/08/12 01:04:29;;;;;;;5.47;3.55;;;;;;;;;;5055335;28;20226;-90
2023/08/12 01:06:57;;;;;;;4.13;3.22;;;;;;;;;;5077769;28;20330;-92
2023/08/12 01:09:24;;;;;;;5.70;3.70;;;;;;;;;;5080235;28;20205;-92
2023/08/12 01:11:56;;;;;;;6.50;3.60;;;;;;;;;;5079030;28;20229;-92
2023/08/12 01:14:25;;;;;;;4.43;4.03;;;;;;;;;;5072753;28;20220;-92
2023/08/12 01:16:54;;;;;;;6.60;3.35;;;;;;;;;;5058017;28;20230;-92
2023/08/12 01:19:24;;;;;;;6.07;3.35;;;;;;;;;;5059035;28;20202;-92
2023/08/12 01:21:54;;;;;;;5.40;3.42;;;;;;;;;;5058500;28;20230;-92
2023/08/12 01:24:23;;;;;;;5.78;3.38;;;;;;;;;;5058662;28;20624;-92
2023/08/12 01:26:51;;;;;;;5.32;3.75;;;;;;;;;;5058142;28;20241;-91
2023/08/12 01:29:18;;;;;;;4.15;3.75;;;;;;;;;;5058714;28;20595;-91
2023/08/12 01:31:49;;;;;;;3.85;3.38;;;;;;;;;;5057313;28;20256;-90
2023/08/12 01:34:21;;;;;;;4.00;3.60;;;;;;;;;;5057158;28;20206;-91
2023/08/12 01:36:51;;;;;;;3.47;3.17;;;;;;;;;;5056861;28;20277;-91
2023/08/12 01:39:19;;;;;;;5.40;3.97;;;;;;;;;;5057546;28;20205;-92
2023/08/12 01:41:47;;;;;;;4.25;3.85;;;;;;;;;;5057361;28;20287;-92
2023/08/12 01:44:15;;;;;;;5.38;3.70;;;;;;;;;;5057465;28;20202;-92
2023/08/12 01:46:45;;;;;;;6.32;3.97;;;;;;;;;;5056963;28;20237;-91
2023/08/12 01:49:12;;;;;;;4.30;3.78;;;;;;;;;;5057376;28;20664;-92
2023/08/12 01:51:39;;;;;;;4.78;3.78;;;;;;;;;;5057300;28;20599;-92
2023/08/12 01:54:06;;;;;;;5.00;3.60;;;;;;;;;;5057804;28;20202;-91
2023/08/12 01:56:33;;;;;;;4.05;3.65;;;;;;;;;;5057687;28;20213;-92
2023/08/12 01:59:02;;;;;;;3.97;3.45;;;;;;;;;;5058332;28;20198;-92
2023/08/12 02:01:29;;;;;;;4.80;3.65;;;;;;;;;;5056611;28;20244;-91
2023/08/12 02:03:56;;;;;;;5.10;3.65;;;;;;;;;;5056612;28;20209;-91
2023/08/12 02:06:23;;;;;;;4.03;3.50;;;;;;;;;;5056176;28;20236;-91
2023/08/12 02:08:50;;;;;;;5.22;3.78;;;;;;;;;;5056921;28;20202;-91
2023/08/12 02:11:17;;;;;;;4.30;3.90;;;;;;;;;;5056913;28;20240;-92
2023/08/12 02:13:45;;;;;;;4.15;3.75;;;;;;;;;;5057703;28;20198;-92
2023/08/12 02:16:13;;;;;;;4.25;3.85;;;;;;;;;;5056153;28;20248;-92
2023/08/12 02:18:40;;;;;;;4.65;3.58;;;;;;;;;;5058002;28;20214;-92
2023/08/12 02:21:07;;;;;;;4.25;3.47;;;;;;;;;;5057246;28;20577;-92
2023/08/12 02:23:34;;;;;;;4.90;3.95;;;;;;;;;;5057476;28;20645;-92
2023/08/12 02:26:02;;;;;;;5.32;3.92;;;;;;;;;;5057327;28;20555;-92
2023/08/12 02:28:29;;;;;;;4.03;3.65;;;;;;;;;;5056977;28;20226;-91
2023/08/12 02:30:56;;;;;;;10.73;4.28;;;;;;;;;;5056197;28;20206;-90
2023/08/12 02:33:25;;;;;;;5.78;5.00;;;;;;;;;;5055950;28;20199;-92
2023/08/12 02:35:54;;;;;;;7.07;4.45;;;;;;;;;;5056406;28;20225;-91
2023/08/12 02:38:21;;;;;;;5.07;4.57;;;;;;;;;;5056257;28;20643;-92
2023/08/12 02:40:49;;;;;;;4.50;4.10;;;;;;;;;;5057129;28;20202;-92
2023/08/12 02:43:17;;;;;;;4.70;4.30;;;;;;;;;;5056414;28;20230;-91
2023/08/12 02:45:44;;;;;;;5.13;4.35;;;;;;;;;;5056942;28;20205;-92
2023/08/12 02:48:11;;;;;;;5.57;3.97;;;;;;;;;;5056659;28;20242;-92
2023/08/12 02:50:40;;;;;;;4.45;3.67;;;;;;;;;;5057075;28;20202;-92
2023/08/12 02:53:08;;;;;;;7.22;4.05;;;;;;;;;;5056914;28;20708;-93
2023/08/12 02:55:35;;;;;;;4.93;4.05;;;;;;;;;;5056752;28;20202;-92
2023/08/12 02:58:03;;;;;;;4.65;3.97;;;;;;;;;;5055865;28;20248;-92
2023/08/12 03:00:30;;;;;;;4.93;3.65;;;;;;;;;;5057161;28;20225;-92
2023/08/12 03:02:57;;;;;;;4.32;3.92;;;;;;;;;;5055814;28;20249;-92
2023/08/12 03:05:24;;;;;;;9.07;4.57;;;;;;;;;;5054814;28;20205;-91
2023/08/12 03:07:52;;;;;;;4.40;3.67;;;;;;;;;;5054727;28;20244;-91
2023/08/12 03:10:20;;;;;;;7.72;4.45;;;;;;;;;;5055616;28;20260;-92
2023/08/12 03:12:47;;;;;;;5.32;4.35;;;;;;;;;;5056171;28;20229;-93
2023/08/12 03:15:14;;;;;;;6.38;4.93;;;;;;;;;;5056387;28;20190;-91
2023/08/12 03:17:41;;;;;;;7.20;5.30;;;;;;;;;;5056125;28;20245;-92
2023/08/12 03:20:09;;;;;;;6.75;5.28;;;;;;;;;;5055663;28;20216;-91
2023/08/12 03:22:36;;;;;;;6.22;5.55;;;;;;;;;;5056002;28;20741;-91
2023/08/12 03:25:05;;;;;;;7.43;4.75;;;;;;;;;;5056045;28;20202;-91
2023/08/12 03:27:32;;;;;;;8.35;5.53;;;;;;;;;;5055966;28;20448;-91
2023/08/12 03:29:59;;;;;;;5.35;4.78;;;;;;;;;;5059333;28;20522;-92
2023/08/12 03:32:27;;;;;;;6.07;4.90;;;;;;;;;;5059197;28;20254;-92
2023/08/12 03:34:54;;;;;;;6.70;5.63;;;;;;;;;;5059748;28;20255;-91
2023/08/12 03:37:21;;;;;;;8.93;6.00;;;;;;;;;;5058777;28;20241;-91
2023/08/12 03:39:48;;;;;;;6.38;5.18;;;;;;;;;;5059781;28;20667;-91
2023/08/12 03:42:16;;;;;;;9.27;6.47;;;;;;;;;;5059459;28;20234;-92
2023/08/12 03:44:44;;;;;;;11.55;6.75;;;;;;;;;;5059674;28;20209;-92
2023/08/12 03:47:11;;;;;;;6.43;5.72;;;;;;;;;;5059238;28;20241;-91
2023/08/12 03:49:38;;;;;;;7.05;6.28;;;;;;;;;;5059737;28;20668;-91
2023/08/12 03:52:06;;;;;;;6.47;5.85;;;;;;;;;;5059608;28;20240;-91
2023/08/12 03:54:34;;;;;;;8.35;5.85;;;;;;;;;;5060435;28;20352;-91
2023/08/12 03:57:01;;;;;;;8.07;6.30;;;;;;;;;;5060136;28;20210;-92
2023/08/12 03:59:29;;;;;;;8.60;7.13;;;;;;;;;;5061146;28;20201;-93
2023/08/12 04:01:57;;;;;;;9.30;7.68;;;;;;;;;;5061057;28;20230;-93
2023/08/12 04:04:24;;;;;;;11.13;7.53;;;;;;;;;;5060598;28;20202;-93
2023/08/12 04:06:52;;;;;;;9.68;7.55;;;;;;;;;;5059354;28;20222;-92
2023/08/12 04:09:19;;;;;;;10.25;7.68;;;;;;;;;;5058997;28;20238;-92
2023/08/12 04:11:46;;;;;;;12.45;7.50;;;;;;;;;;5059765;28;20759;-93
2023/08/12 04:14:13;;;;;;;9.65;7.90;;;;;;;;;;5060828;28;20229;-93
2023/08/12 04:16:42;;;;;;;14.10;8.68;;;;;;;;;;5059485;28;20226;-92
2023/08/12 04:19:09;;;;;;;14.80;8.23;;;;;;;;;;5060514;28;20210;-91
2023/08/12 04:21:36;;;;;;;9.07;8.18;;;;;;;;;;5058116;28;20251;-91
2023/08/12 04:24:03;;;;;;;11.88;8.68;;;;;;;;;;5058500;28;20212;-90
2023/08/12 04:26:30;;;;;;;11.13;8.18;;;;;;;;;;5057242;28;20287;-92
2023/08/12 04:28:57;;;;;;;13.68;7.88;;;;;;;;;;5059291;28;20210;-92
2023/08/12 04:31:24;;;;;;;9.73;8.20;;;;;;;;;;5059588;28;20236;-95
2023/08/12 04:33:53;;;;;;;10.52;7.80;;;;;;;;;;5061695;28;20209;-95
2023/08/12 04:36:20;;;;;;;10.98;8.25;;;;;;;;;;5061070;28;20268;-95
2023/08/12 04:38:47;;;;;;;9.57;7.78;;;;;;;;;;5061241;28;20206;-95
2023/08/12 04:41:14;;;;;;;12.88;8.23;;;;;;;;;;5060926;28;20236;-95
2023/08/12 04:43:42;;;;;;;8.70;7.80;;;;;;;;;;5060803;28;20202;-95
2023/08/12 04:46:09;;;;;;;8.85;7.95;;;;;;;;;;5060338;28;20289;-96
2023/08/12 04:48:36;;;;;;;10.18;8.63;;;;;;;;;;5075738;23;20268;-86
2023/08/12 04:51:05;;;;;;;11.48;8.32;;;;;;;;;;5053636;28;20213;-87
2023/08/12 04:53:32;;;;;;;10.23;8.27;;;;;;;;;;5053749;28;20710;-86
2023/08/12 04:55:59;;;;;;;10.27;7.95;;;;;;;;;;5046215;28;20206;-87
2023/08/12 04:58:26;;;;;;;11.25;8.23;;;;;;;;;;5044207;28;20232;-86
2023/08/12 05:00:53;;;;;;;8.77;7.88;;;;;;;;;;5041833;28;20199;-87
2023/08/12 05:03:20;;;;;;;8.60;7.68;;;;;;;;;;5043028;28;20213;-86
2023/08/12 05:05:50;;;;;;;10.68;8.27;;;;;;;;;;5045118;28;20202;-86
2023/08/12 05:08:18;;;;;;;14.10;8.10;;;;;;;;;;5044502;28;20230;-87
2023/08/12 05:10:45;;;;;;;9.18;8.00;;;;;;;;;;5042554;28;20214;-86
2023/08/12 05:13:12;;;;;;;9.30;8.38;;;;;;;;;;5041601;28;20746;-85
2023/08/12 05:15:39;;;;;;;11.18;8.10;;;;;;;;;;5044893;28;20209;-84
2023/08/12 05:18:07;;;;;;;9.13;8.23;;;;;;;;;;5044461;28;20253;-86
2023/08/12 05:20:34;;;;;;;10.32;8.02;;;;;;;;;;5042801;28;20201;-86
2023/08/12 05:23:01;;;;;;;10.27;8.43;;;;;;;;;;5041596;28;20238;-86
2023/08/12 05:25:29;;;;;;;10.13;8.55;;;;;;;;;;5041789;28;20658;-86
2023/08/12 05:27:56;;;;;;;9.73;8.63;;;;;;;;;;5045159;28;20692;-87
2023/08/12 05:30:23;;;;;;;10.57;9.48;;;;;;;;;;5042276;28;20207;-86
2023/08/12 05:32:50;;;;;;;11.55;9.02;;;;;;;;;;5044621;28;20229;-86
2023/08/12 05:35:18;;;;;;;11.98;9.23;;;;;;;;;;5044870;28;20209;-87
2023/08/12 05:37:45;;;;;;;12.65;9.52;;;;;;;;;;5041203;28;20230;-87
2023/08/12 05:40:12;;;;;;;11.13;10.02;;;;;;;;;;5049245;28;20213;-86
2023/08/12 05:42:40;;;;;;;11.23;9.75;;;;;;;;;;5020738;28;20256;-87
2023/08/12 05:45:08;;;;;;;11.48;10.25;;;;;;;;;;5041447;28;20219;-86
2023/08/12 05:47:35;;;;;;;11.50;10.05;;;;;;;;;;5043148;28;20234;-87
2023/08/12 05:50:02;;;;;;;10.90;9.80;;;;;;;;;;5044723;28;20206;-86
2023/08/12 05:52:29;;;;;;;11.15;9.90;;;;;;;;;;5029287;28;20231;-87
2023/08/12 05:54:56;;;;;;;10.40;9.40;;;;;;;;;;5028626;28;20218;-86
2023/08/12 05:57:23;;;;;;;10.30;8.45;;;;;;;;;;5040983;28;20234;-86
2023/08/12 05:59:52;;;;;;;13.18;8.68;;;;;;;;;;5042543;28;20208;-84
2023/08/12 06:02:19;;;;;;;11.40;9.10;;;;;;;;;;5040946;28;20309;-85
2023/08/12 06:04:46;;;;;;;11.63;8.27;;;;;;;;;;5040561;28;20210;-85
2023/08/12 06:07:13;;;;;;;9.60;8.63;;;;;;;;;;5038701;28;20238;-85
2023/08/12 06:09:40;;;;;;;9.98;8.98;;;;;;;;;;5039863;28;20660;-85
2023/08/12 06:12:07;;;;;;;12.00;9.60;;;;;;;;;;5043466;28;20233;-85
2023/08/12 06:14:34;;;;;;;10.95;9.60;;;;;;;;;;5041261;28;20206;-85
2023/08/12 06:17:03;;;;;;;10.30;9.30;;;;;;;;;;5040225;28;20227;-83
2023/08/12 06:19:30;;;;;;;10.35;8.90;;;;;;;;;;5041822;28;20208;-83
2023/08/12 06:21:57;;;;;;;10.80;9.57;;;;;;;;;;5042058;28;20236;-82
2023/08/12 06:24:24;;;;;;;13.55;9.40;;;;;;;;;;5029073;28;20208;-81
2023/08/12 06:26:51;;;;;;;9.25;8.35;;;;;;;;;;5031351;28;20229;-81
2023/08/12 06:29:18;;;;;;;7.38;6.68;;;;;;;;;;5026881;28;20207;-81
2023/08/12 06:31:45;;;;;;;7.00;6.15;;;;;;;;;;5030796;28;20222;-81
2023/08/12 06:34:13;;;;;;;7.90;6.05;;;;;;;;;;5026502;28;20211;-81
2023/08/12 06:36:40;;;;;;;6.70;6.00;;;;;;;;;;5030023;28;20238;-81
2023/08/12 06:39:07;;;;;;;7.97;5.82;;;;;;;;;;5027287;28;20211;-82
2023/08/12 06:41:34;;;;;;;7.10;5.53;;;;;;;;;;5033964;28;20249;-81
2023/08/12 06:44:03;;;;;;;12.52;5.55;;;;;;;;;;5027668;28;20668;-82
2023/08/12 06:46:31;;;;;;;6.22;5.57;;;;;;;;;;5029278;28;20654;-82
2023/08/12 06:48:59;;;;;;;5.70;5.20;;;;;;;;;;5031276;28;20280;-82
2023/08/12 06:51:27;;;;;;;6.68;5.68;;;;;;;;;;5027535;28;20238;-82
2023/08/12 06:53:54;;;;;;;9.35;6.78;;;;;;;;;;5028474;28;20206;-82
2023/08/12 06:56:21;;;;;;;8.35;5.43;;;;;;;;;;5026370;28;20226;-82
2023/08/12 06:58:49;;;;;;;8.02;5.30;;;;;;;;;;5028837;28;20230;-82
2023/08/12 07:01:16;;;;;;;7.53;5.43;;;;;;;;;;5024903;28;20306;-82
2023/08/12 07:03:43;;;;;;;8.02;5.20;;;;;;;;;;5024374;28;20699;-81
2023/08/12 07:06:10;;;;;;;8.00;5.63;;;;;;;;;;5030490;28;20205;-81
2023/08/12 07:08:38;;;;;;;6.38;5.47;;;;;;;;;;5028734;28;20222;-82
2023/08/12 07:11:05;;;;;;;8.23;5.82;;;;;;;;;;5026182;28;20680;-81
2023/08/12 07:13:33;;;;;;;6.35;5.55;;;;;;;;;;5028791;28;20229;-82
2023/08/12 07:16:00;;;;;;;6.78;5.10;;;;;;;;;;5027684;28;20273;-81
2023/08/12 07:18:28;;;;;;;6.60;5.28;;;;;;;;;;5028623;28;20712;-81
2023/08/12 07:20:58;;;;;;;6.70;5.45;;;;;;;;;;5027606;28;20202;-82
2023/08/12 07:23:25;;;;;;;8.80;6.50;;;;;;;;;;5026619;28;20323;-80
2023/08/12 07:25:53;;;;;;;6.28;5.35;;;;;;;;;;5024585;28;20311;-80
2023/08/12 07:28:20;;;;;;;5.60;4.60;;;;;;;;;;5021457;28;20692;-81
2023/08/12 07:30:47;;;;;;;8.20;5.18;;;;;;;;;;5032784;28;20202;-81
2023/08/12 07:33:14;;;;;;;6.95;5.20;;;;;;;;;;5024633;28;20235;-81
2023/08/12 07:35:41;;;;;;;6.45;4.63;;;;;;;;;;5032368;28;20569;-81
2023/08/12 07:38:08;;;;;;;8.32;5.88;;;;;;;;;;5024803;28;20234;-81
2023/08/12 07:40:35;;;;;;;5.18;4.68;;;;;;;;;;5028392;28;20293;-81
2023/08/12 07:43:05;;;;;;;4.85;4.45;;;;;;;;;;5026856;28;20230;-81
2023/08/12 07:45:32;;;;;;;6.30;4.57;;;;;;;;;;5024670;28;20293;-81
2023/08/12 07:47:59;;;;;;;5.38;4.03;;;;;;;;;;5039526;28;20696;-82
2023/08/12 07:50:26;;;;;;;5.15;4.65;;;;;;;;;;5046450;28;20257;-84
2023/08/12 07:52:53;;;;;;;5.43;4.85;;;;;;;;;;5045542;28;20660;-82
2023/08/12 07:55:20;;;;;;;5.10;4.10;;;;;;;;;;5046313;28;20202;-82
2023/08/12 07:57:47;;;;;;;6.45;4.65;;;;;;;;;;5039219;28;20257;-80
2023/08/12 08:00:16;;;;;;;4.50;4.10;;;;;;;;;;5042052;28;20206;-82
2023/08/12 08:02:43;;;;;;;4.65;4.03;;;;;;;;;;5035795;28;20318;-81
2023/08/12 08:05:10;;;;;;;5.30;4.05;;;;;;;;;;5044078;28;20719;-80
2023/08/12 08:07:37;;;;;;;4.22;3.70;;;;;;;;;;5034678;28;20237;-82
2023/08/12 08:10:05;;;;;;;4.93;4.28;;;;;;;;;;5043729;28;20214;-82
2023/08/12 08:12:32;;;;;;;4.18;3.78;;;;;;;;;;5026061;28;20652;-81
2023/08/12 08:14:59;;;;;;;6.65;3.72;;;;;;;;;;5031038;28;20210;-81
2023/08/12 08:17:27;;;;;;;4.10;3.47;;;;;;;;;;5029370;28;20263;-81
2023/08/12 08:19:54;;;;;;;4.30;3.90;;;;;;;;;;5033431;28;20209;-79
2023/08/12 08:22:21;;;;;;;3.97;3.58;;;;;;;;;;5030065;28;20235;-77
2023/08/12 08:24:49;;;;;;;5.68;3.88;;;;;;;;;;5033501;28;20213;-79
2023/08/12 08:27:16;;;;;;;4.47;3.60;;;;;;;;;;5028997;28;20234;-79
2023/08/12 08:29:43;;;;;;;4.32;3.72;;;;;;;;;;5032027;28;20239;-80
2023/08/12 08:32:10;;;;;;;3.65;3.35;;;;;;;;;;5042206;28;20253;-81
2023/08/12 08:34:38;;;;;;;3.95;3.55;;;;;;;;;;5048813;28;20221;-81
2023/08/12 08:37:05;;;;;;;4.07;3.30;;;;;;;;;;5042019;28;20230;-82
2023/08/12 08:39:32;;;;;;;5.63;3.78;;;;;;;;;;5042115;28;20629;-81
2023/08/12 08:42:00;;;;;;;6.10;3.65;;;;;;;;;;5048793;28;20721;-82
2023/08/12 08:44:30;;;;;;;6.40;3.92;;;;;;;;;;5037497;28;20206;-81
2023/08/12 08:46:57;;;;;;;5.60;3.92;;;;;;;;;;5033172;28;20225;-91
2023/08/12 08:49:24;;;;;;;3.70;3.40;;;;;;;;;;5046359;28;20217;-90
2023/08/12 08:51:53;;;;;;;3.88;3.38;;;;;;;;;;5039203;28;20763;-91
2023/08/12 08:54:20;;;;;;;3.50;3.20;;;;;;;;;;5040431;28;20207;-89
2023/08/12 08:56:49;;;;;;;3.70;3.40;;;;;;;;;;5031332;28;20227;-85
2023/08/12 08:59:16;;;;;;;3.90;3.60;;;;;;;;;;5034568;28;20223;-86
2023/08/12 09:01:46;;;;;;;4.22;3.83;;;;;;;;;;5039177;28;20226;-83
2023/08/12 09:04:13;;;;;;;4.40;3.60;;;;;;;;;;5032322;28;20203;-83
2023/08/12 09:06:41;;;;;;;5.60;4.05;;;;;;;;;;5043193;28;20230;-83
2023/08/12 09:09:11;;;;;;;4.85;3.83;;;;;;;;;;5040005;28;20237;-84
2023/08/12 09:11:40;;;;;;;5.03;3.50;;;;;;;;;;5042304;28;20234;-84
2023/08/12 09:14:07;;;;;;;4.72;3.58;;;;;;;;;;5041086;28;20210;-84
2023/08/12 09:16:34;;;;;;;6.25;4.30;;;;;;;;;;5043716;28;20741;-83
2023/08/12 09:19:01;;;;;;;5.68;3.78;;;;;;;;;;5041274;28;20272;-84
2023/08/12 09:21:28;;;;;;;3.58;3.17;;;;;;;;;;5041344;28;20226;-83
2023/08/12 09:23:56;;;;;;;3.88;3.42;;;;;;;;;;5041341;28;20229;-83
2023/08/12 09:26:25;;;;;;;4.43;3.50;;;;;;;;;;5040524;28;20230;-84
2023/08/12 09:28:52;;;;;;;4.47;3.53;;;;;;;;;;5044289;28;20222;-83
2023/08/12 09:31:25;;;;;;;7.28;3.63;;;;;;;;;;5044247;28;20244;-83
2023/08/12 09:33:52;;;;;;;6.63;3.70;;;;;;;;;;5041302;28;20384;-83
2023/08/12 09:36:19;;;;;;;4.57;3.40;;;;;;;;;;5040821;28;20318;-84
2023/08/12 09:38:47;;;;;;;3.72;3.40;;;;;;;;;;5043030;28;20230;-83
2023/08/12 09:41:14;;;;;;;3.63;3.28;;;;;;;;;;5044214;28;20237;-84
2023/08/12 09:43:43;;;;;;;3.45;3.15;;;;;;;;;;5042378;28;20198;-84
2023/08/12 09:46:13;;;;;;;3.85;3.45;;;;;;;;;;5040633;28;20203;-84
2023/08/12 09:48:40;;;;;;;5.32;3.42;;;;;;;;;;5041820;28;20653;-84
2023/08/12 09:51:08;;;;;;;3.50;3.20;;;;;;;;;;5044486;28;20691;-83
2023/08/12 09:53:35;;;;;;;3.80;3.50;;;;;;;;;;5038381;28;20234;-83
2023/08/12 09:56:07;;;;;;;4.15;3.20;;;;;;;;;;5043437;28;20202;-86
2023/08/12 09:58:36;;;;;;;4.13;2.83;;;;;;;;;;5043762;28;20754;-86
2023/08/12 10:01:06;;;;;;;6.30;2.97;;;;;;;;;;5040609;28;20685;-84
2023/08/12 10:03:34;;;;;;;3.35;3.03;;;;;;;;;;5032610;28;20207;-85
2023/08/12 10:06:02;;;;;;;2.78;2.55;;;;;;;;;;5043013;28;20206;-86
2023/08/12 10:08:30;;;;;;;3.50;3.15;;;;;;;;;;5044565;28;20651;-86
2023/08/12 10:10:57;;;;;;;3.03;2.72;;;;;;;;;;5043993;28;20202;-86
2023/08/12 10:13:24;;;;;;;2.35;2.17;;;;;;;;;;5034972;28;20213;-86
2023/08/12 10:15:51;;;;;;;6.80;2.95;;;;;;;;;;5034129;28;20203;-86
2023/08/12 10:18:20;;;;;;;2.78;2.58;;;;;;;;;;5044449;28;20249;-87
2023/08/12 10:20:49;;;;;;;5.22;2.83;;;;;;;;;;5038487;28;20214;-85
2023/08/12 10:23:18;;;;;;;2.53;2.30;;;;;;;;;;5039647;28;20234;-86
2023/08/12 10:25:45;;;;;;;3.90;3.00;;;;;;;;;;5039500;28;20567;-87
2023/08/12 10:28:13;;;;;;;3.17;2.50;;;;;;;;;;5023601;28;20227;-86
2023/08/12 10:30:41;;;;;;;3.65;2.78;;;;;;;;;;5039988;28;20234;-86
2023/08/12 10:33:08;;;;;;;3.53;3.22;;;;;;;;;;5031754;28;20226;-85
2023/08/12 10:35:44;;;;;;;3.72;3.05;;;;;;;;;;5033333;28;20204;-88
2023/08/12 10:38:12;;;;;;;4.15;2.72;;;;;;;;;;5020332;28;20235;-86
2023/08/12 10:40:39;;;;;;;4.25;3.20;;;;;;;;;;5021600;28;20199;-87
2023/08/12 10:43:06;;;;;;;6.07;3.15;;;;;;;;;;5023257;28;20239;-88
2023/08/12 10:45:43;;;;;;;5.28;3.28;;;;;;;;;;5023856;28;20202;-86
2023/08/12 10:48:18;;;;;;;3.50;2.60;;;;;;;;;;5017682;28;20242;-86
2023/08/12 10:50:47;;;;;;;4.05;3.10;;;;;;;;;;5019322;28;20218;-86
2023/08/12 10:53:29;;;;;;;4.57;3.50;;;;;;;;;;5022606;28;20231;-87
2023/08/12 10:55:56;;;;;;;4.50;3.30;;;;;;;;;;5020425;28;20211;-83
2023/08/12 10:58:31;;;;;;;4.38;3.47;;;;;;;;;;5021289;28;20243;-83
2023/08/12 11:00:59;;;;;;;4.68;3.53;;;;;;;;;;5019600;28;20206;-83
2023/08/12 11:03:26;;;;;;;5.63;3.67;;;;;;;;;;5022003;28;20245;-83
2023/08/12 11:05:56;;;;;;;7.30;3.85;;;;;;;;;;5023661;28;20203;-84
2023/08/12 11:08:27;;;;;;;6.68;4.03;;;;;;;;;;5023894;28;20245;-81
2023/08/12 11:10:56;;;;;;;6.80;4.30;;;;;;;;;;5031521;28;20214;-83
2023/08/12 11:13:24;;;;;;;10.95;4.45;;;;;;;;;;5032063;28;20211;-81
2023/08/12 11:15:51;;;;;;;4.80;3.53;;;;;;;;;;5031870;28;20219;-82
2023/08/12 11:18:19;;;;;;;5.70;4.10;;;;;;;;;;5031292;28;20238;-82
2023/08/12 11:20:46;;;;;;;5.78;4.10;;;;;;;;;;5032156;28;20229;-82
2023/08/12 11:23:15;;;;;;;6.15;4.07;;;;;;;;;;5031440;28;20738;-83
2023/08/12 11:25:44;;;;;;;5.68;4.50;;;;;;;;;;5031657;28;20706;-81
2023/08/12 11:28:11;;;;;;;7.20;4.25;;;;;;;;;;5031272;28;20234;-83
2023/08/12 11:30:43;;;;;;;5.30;3.35;;;;;;;;;;5031989;28;20220;-83
2023/08/12 11:33:10;;;;;;;6.32;3.80;;;;;;;;;;5031340;28;20288;-83
2023/08/12 11:35:37;;;;;;;4.53;3.67;;;;;;;;;;5031455;28;20710;-82
2023/08/12 11:38:06;;;;;;;4.55;3.28;;;;;;;;;;5031164;28;20239;-82
2023/08/12 11:40:34;;;;;;;5.15;3.90;;;;;;;;;;5031948;28;20748;-82
2023/08/12 11:43:01;;;;;;;4.72;3.83;;;;;;;;;;5031127;28;20582;-82
2023/08/12 11:45:28;;;;;;;4.43;3.30;;;;;;;;;;5031711;28;20211;-82
2023/08/12 11:47:56;;;;;;;5.70;3.83;;;;;;;;;;5031444;28;20296;-82
2023/08/12 11:50:23;;;;;;;4.45;3.90;;;;;;;;;;5035383;28;20672;-81
2023/08/12 11:52:51;;;;;;;4.97;3.80;;;;;;;;;;5035099;28;20230;-83
2023/08/12 11:55:18;;;;;;;3.33;2.60;;;;;;;;;;5035479;28;20230;-83
2023/08/12 11:57:47;;;;;;;2.85;2.65;;;;;;;;;;5034829;28;20245;-83
2023/08/12 12:00:14;;;;;;;3.95;2.65;;;;;;;;;;5035092;28;20773;-82
2023/08/12 12:02:43;;;;;;;2.50;2.30;;;;;;;;;;5035142;28;20258;-84
2023/08/12 12:05:12;;;;;;;3.47;2.30;;;;;;;;;;5035515;28;20290;-83
2023/08/12 12:07:39;;;;;;;2.97;2.45;;;;;;;;;;5035070;28;20617;-85
2023/08/12 12:10:06;;;;;;;3.00;1.92;;;;;;;;;;5035166;28;20214;-83
2023/08/12 12:12:35;;;;;;;3.47;2.55;;;;;;;;;;5034705;28;20234;-84
2023/08/12 12:15:03;;;;;;;1.88;1.77;;;;;;;;;;5035141;28;20260;-83
2023/08/12 12:17:31;;;;;;;3.08;2.60;;;;;;;;;;5034759;28;20269;-84
2023/08/12 12:19:58;;;;;;;2.53;2.33;;;;;;;;;;5024394;28;20227;-84
2023/08/12 12:22:30;;;;;;;2.63;2.17;;;;;;;;;;5034702;28;20239;-87
2023/08/12 12:24:59;;;;;;;2.50;2.30;;;;;;;;;;5034977;28;20672;-85
2023/08/12 12:27:26;;;;;;;2.17;1.58;;;;;;;;;;5034309;28;20239;-85
2023/08/12 12:29:53;;;;;;;3.72;1.90;;;;;;;;;;5034766;28;20207;-84
2023/08/12 12:32:22;;;;;;;4.00;1.70;;;;;;;;;;5028174;28;20230;-83
2023/08/12 12:34:49;;;;;;;2.33;1.63;;;;;;;;;;5023174;28;20194;-83
2023/08/12 12:37:16;;;;;;;4.78;1.95;;;;;;;;;;5024423;28;20254;-84
2023/08/12 12:39:43;;;;;;;3.25;1.63;;;;;;;;;;5023180;28;20231;-86
2023/08/12 12:42:11;;;;;;;3.10;1.92;;;;;;;;;;5023096;28;20230;-83
2023/08/12 12:44:38;;;;;;;3.90;1.60;;;;;;;;;;5024904;28;20198;-83
2023/08/12 12:47:06;;;;;;;2.45;1.23;;;;;;;;;;5022456;28;20231;-82
2023/08/12 12:49:34;;;;;;;2.15;1.50;;;;;;;;;;5025400;28;20676;-85
2023/08/12 12:52:01;;;;;;;2.15;1.33;;;;;;;;;;5034006;28;20234;-84
2023/08/12 12:54:30;;;;;;;2.78;1.38;;;;;;;;;;5029166;28;20680;-86
2023/08/12 12:56:57;;;;;;;2.10;1.42;;;;;;;;;;5033238;28;20262;-85
2023/08/12 12:59:24;;;;;;;1.40;1.30;;;;;;;;;;5033456;28;20233;-82
2023/08/12 13:01:51;;;;;;;1.27;1.17;;;;;;;;;;5013937;28;20231;-85
2023/08/12 13:04:19;;;;;;;1.77;1.10;;;;;;;;;;5014207;28;20203;-86
2023/08/12 13:06:47;;;;;;;1.42;1.27;;;;;;;;;;5013666;28;20238;-84
2023/08/12 13:09:14;;;;;;;1.30;1.20;;;;;;;;;;5014832;28;20200;-83
2023/08/12 13:11:41;;;;;;;1.77;1.65;;;;;;;;;;5014064;28;20245;-87
2023/08/12 13:14:08;;;;;;;1.75;1.50;;;;;;;;;;5015298;28;20210;-85
2023/08/12 13:16:35;;;;;;;2.03;1.20;;;;;;;;;;5014173;28;20242;-87
2023/08/12 13:19:02;;;;;;;1.63;1.50;;;;;;;;;;5014576;28;20231;-87
2023/08/12 13:21:29;;;;;;;1.98;1.40;;;;;;;;;;5014416;28;20723;-88
2023/08/12 13:23:58;;;;;;;1.60;1.50;;;;;;;;;;5014700;28;20204;-85
2023/08/12 13:26:25;;;;;;;1.70;1.17;;;;;;;;;;5013815;28;20231;-84
2023/08/12 13:28:52;;;;;;;3.90;1.60;;;;;;;;;;5014353;28;20227;-87
2023/08/12 13:31:19;;;;;;;1.38;1.27;;;;;;;;;;5014170;28;20285;-87
2023/08/12 13:33:47;;;;;;;2.30;1.52;;;;;;;;;;5014777;28;20199;-88
2023/08/12 13:36:14;;;;;;;2.22;1.60;;;;;;;;;;5014089;28;20230;-85
2023/08/12 13:38:41;;;;;;;1.60;1.50;;;;;;;;;;5013936;28;20222;-89
2023/08/12 13:41:10;;;;;;;1.65;1.52;;;;;;;;;;5014169;28;20235;-87
2023/08/12 13:43:37;;;;;;;1.42;1.33;;;;;;;;;;5032652;28;20206;-87
2023/08/12 13:46:04;;;;;;;2.28;1.80;;;;;;;;;;5034002;28;20206;-87
2023/08/12 13:48:31;;;;;;;2.63;1.58;;;;;;;;;;5031680;28;20235;-87
2023/08/12 13:50:58;;;;;;;2.08;1.90;;;;;;;;;;5023577;28;20834;-86
2023/08/12 13:53:25;;;;;;;2.80;1.92;;;;;;;;;;5025355;28;20730;-86
2023/08/12 13:55:52;;;;;;;3.95;1.77;;;;;;;;;;5023285;28;20191;-88
2023/08/12 13:58:21;;;;;;;2.03;1.85;;;;;;;;;;5022080;28;20593;-86
2023/08/12 14:00:48;;;;;;;2.25;1.73;;;;;;;;;;5023879;28;20229;-86
2023/08/12 14:03:15;;;;;;;4.72;1.73;;;;;;;;;;5025249;28;20237;-86
2023/08/12 14:05:42;;;;;;;2.30;2.10;;;;;;;;;;5023251;28;20579;-86
2023/08/12 14:08:09;;;;;;;2.03;1.90;;;;;;;;;;5018631;28;20239;-86
2023/08/12 14:10:36;;;;;;;2.10;1.90;;;;;;;;;;5013861;28;20203;-87
2023/08/12 14:13:03;;;;;;;2.25;1.67;;;;;;;;;;5022000;28;20348;-87
2023/08/12 14:15:31;;;;;;;1.77;1.67;;;;;;;;;;5023889;28;20245;-86
2023/08/12 14:17:58;;;;;;;2.08;1.90;;;;;;;;;;5020639;28;20242;-87
2023/08/12 14:20:25;;;;;;;1.80;1.55;;;;;;;;;;5023172;28;20248;-86
2023/08/12 14:22:52;;;;;;;2.20;1.73;;;;;;;;;;5022054;28;20230;-87
2023/08/12 14:25:20;;;;;;;2.35;1.60;;;;;;;;;;5022780;28;20210;-87
2023/08/12 14:27:47;;;;;;;1.70;1.60;;;;;;;;;;5021554;28;20231;-87
2023/08/12 14:30:16;;;;;;;1.75;1.65;;;;;;;;;;5022355;28;20198;-88
2023/08/12 14:32:44;;;;;;;1.40;1.30;;;;;;;;;;5018022;28;20223;-88
2023/08/12 14:35:11;;;;;;;1.27;1.27;;;;;;;;;;5014019;28;20211;-87
2023/08/12 14:37:38;;;;;;;1.55;1.45;;;;;;;;;;5012867;28;20246;-84
2023/08/12 14:40:06;;;;;;;1.27;1.23;;;;;;;;;;5012818;28;20235;-87
2023/08/12 14:42:33;;;;;;;1.80;1.30;;;;;;;;;;5013433;28;20262;-87